• Join FlightAware (Why Join?)
  • Login
  • US Flag 
03:50PM EST


 

Airport Tracker/Info


-or-


 

Live Flight TrackerFlight Track Log ✈ XOJ552 ✈ 23-Aug-2013 ✈ KBFI - PAKN

Flight Track Log - Related Links

Times and Time Zones

All times are in EDT time to prevent confusion due to time zone crossing. See the XOJ552 flight status page for this flight to view local times or setup timezone preferences in your user account.

Time Position Orientation Groundspeed Altitude Reporting Facility
EDT Latitude Longitude Course Direction KTS MPH feet Rate Location/Type
08:53AM 47.5092 -122.2861 145° Southeast 175 201 1,200  Level Seattle Center
08:54AM 47.4697 -122.2453 145° Southeast 218 251 3,900 3,000 Climbing Seattle Center
08:55AM 47.4264 -122.2139 154° Southeast 250 288 6,100 3,480 Climbing Seattle Center
08:56AM 47.3889 -122.2908 234° Southwest 262 302 9,900 3,360 Climbing Seattle Center
08:57AM 47.4342 -122.4025 301° West 316 364 12,900 3,120 Climbing Seattle Center
08:58AM 47.4819 -122.5153 302° West 324 373 16,200 2,880 Climbing Seattle Center
08:59AM 47.5286 -122.6231 303° West 341 392 18,800 2,220 Climbing Seattle Center
09:00AM 47.6006 -122.7378 313° West 379 436 20,700 2,220 Climbing Seattle Center
09:01AM 47.6756 -122.8589 313° West 394 453 23,300 2,580 Climbing Seattle Center
09:02AM 47.7511 -122.9800 313° West 401 461 26,000 2,460 Climbing Seattle Center
09:03AM 47.8253 -123.1031 312° West 402 463 28,300 2,220 Climbing Seattle Center
09:04AM 47.9003 -123.2269 312° West 406 467 30,500 1,980 Climbing Seattle Center
09:05AM 47.9758 -123.3497 313° West 406 467 32,300 1,560 Climbing Seattle Center
09:06AM 48.0644 -123.4983 312° West 419 482 33,700 1,320 Climbing Seattle Center
09:07AM 48.1444 -123.6336 312° West 434 499 35,000 1,380 Climbing Seattle Center
09:08AM 48.2250 -123.7694 312° West 437 503 36,500 1,080 Climbing Seattle Center
09:10AM 48.3667 -124.0500 307° West 440 506 38,400 840 Climbing Vancouver Center
09:11AM 48.4500 -124.2000 310° West 450 518 39,200 600 Climbing Vancouver Center
09:12AM 48.5333 -124.3333 313° West 460 529 39,600 420 Climbing Vancouver Center
09:13AM 48.6167 -124.4833 310° West 460 529 40,100 600 Climbing Vancouver Center
09:14AM 48.7167 -124.6333 315° West 470 541 40,800 600 Climbing Vancouver Center
09:15AM 48.8000 -124.7833 310° West 470 541 41,300 480 Climbing Vancouver Center
09:16AM 48.8833 -124.9333 310° West 470 541 41,800 480 Climbing Vancouver Center
09:17AM 48.9667 -125.0667 314° West 470 541 42,300 540 Climbing Vancouver Center
09:18AM 49.0500 -125.2333 307° West 460 529 42,900 300 Climbing Vancouver Center
09:19AM 49.1333 -125.3833 310° West 450 518 43,000  Climbing Vancouver Center
09:20AM 49.2167 -125.5333 310° West 460 529 43,000  Level Vancouver Center
09:21AM 49.2833 -125.6667 308° West 470 541 43,000  Level Vancouver Center
09:22AM 49.3833 -125.8333 313° West 470 541 43,000  Level Vancouver Center
09:23AM 49.4667 -125.9833 311° West 470 541 43,000  Level Vancouver Center
09:24AM 49.5500 -126.1333 311° West 470 541 43,000  Level Vancouver Center
09:25AM 49.6333 -126.3000 308° West 470 541 43,000  Level Vancouver Center
09:26AM 49.7167 -126.4667 308° West 470 541 43,000  Level Vancouver Center
09:27AM 49.7833 -126.6167 305° West 470 541 43,000  Level Vancouver Center
09:28AM 49.8833 -126.7833 313° West 470 541 43,000  Level Vancouver Center
09:29AM 49.9667 -126.9167 314° West 480 552 43,000  Level Vancouver Center
09:30AM 50.0500 -127.0833 308° West 480 552 43,000  Level Vancouver Center
09:31AM 50.1333 -127.2333 311° West 470 541 43,000  Level Vancouver Center
09:32AM 50.2167 -127.4000 308° West 470 541 43,000  Level Vancouver Center
09:33AM 50.3000 -127.5667 308° West 470 541 43,000  Level Vancouver Center
09:34AM 50.3833 -127.7333 308° West 470 541 43,000  Level Vancouver Center
09:35AM 50.4500 -127.8833 305° West 470 541 43,000  Level Vancouver Center
09:36AM 50.5500 -128.0500 313° West 480 552 43,000  Level Vancouver Center
09:37AM 50.6167 -128.2167 302° West 470 541 43,000  Level Vancouver Center
09:38AM 50.7000 -128.3833 308° West 470 541 43,000  Level Vancouver Center
09:39AM 50.7833 -128.5333 311° West 460 529 43,000  Level Vancouver Center
09:40AM 50.8500 -128.7000 302° West 460 529 43,000  Level Vancouver Center
09:41AM 50.9333 -128.8667 308° West 460 529 43,000  Level Vancouver Center
09:42AM 51.0333 -129.0333 314° West 460 529 43,000  Level Vancouver Center
09:43AM 51.0833 -129.1667 301° West 460 529 43,000  Level Vancouver Center
09:44AM 51.1667 -129.3333 309° West 460 529 43,000  Level Vancouver Center
09:45AM 51.2500 -129.5167 306° West 460 529 43,000  Level Vancouver Center
09:46AM 51.3333 -129.6833 309° West 460 529 43,000  Level Vancouver Center
09:47AM 51.4000 -129.8500 303° West 460 529 43,000  Level Vancouver Center
09:48AM 51.4833 -130.0000 312° West 460 529 43,000  Level Vancouver Center
09:49AM 51.5500 -130.1667 303° West 460 529 43,000  Level Vancouver Center
09:50AM 51.6333 -130.3333 309° West 460 529 43,000  Level Vancouver Center
09:51AM 51.7167 -130.5167 306° West 460 529 43,000  Level Vancouver Center
09:52AM 51.8000 -130.6667 312° West 460 529 43,000  Level Vancouver Center
09:53AM 51.8667 -130.8333 303° West 460 529 43,000  Level Vancouver Center
09:54AM 51.9500 -131.0167 306° West 460 529 43,000  Level Vancouver Center
09:55AM 52.0167 -131.1833 303° West 460 529 43,000  Level Vancouver Center
09:56AM 52.0833 -131.3333 306° West 460 529 43,000  Level Vancouver Center
09:57AM 52.1667 -131.5167 307° West 460 529 43,000  Level Vancouver Center
09:58AM 52.2333 -131.6833 303° West 470 541 43,000  Level Vancouver Center
09:59AM 52.3000 -131.8667 301° West 470 541 43,000  Level Vancouver Center
10:00AM 52.4000 -132.0500 312° West 470 541 43,000  Level Vancouver Center
10:01AM 52.4667 -132.2000 306° West 460 529 43,000  Level Vancouver Center
10:02AM 52.5333 -132.3667 303° West 460 529 43,000  Level Vancouver Center
10:03AM 52.6167 -132.5500 307° West 460 529 43,000  Level Vancouver Center
10:04AM 52.6833 -132.7333 301° West 460 529 43,000  Level Vancouver Center
10:05AM 52.7500 -132.9167 301° West 460 529 43,000  Level Vancouver Center
10:06AM 52.8167 -133.0667 306° West 460 529 43,000  Level Vancouver Center
10:07AM 52.9000 -133.2500 307° West 470 541 43,000  Level Vancouver Center
10:08AM 52.9833 -133.4333 307° West 460 529 43,000  Level Vancouver Center
10:09AM 53.0500 -133.6167 301° West 470 541 43,000  Level Vancouver Center
10:10AM 53.1167 -133.8000 301° West 460 529 43,000  Level Vancouver Center
10:11AM 53.1833 -133.9667 304° West 470 541 43,000  Level Vancouver Center
10:12AM 53.2500 -134.1500 301° West 460 529 43,000  Level Vancouver Center
10:13AM 53.3167 -134.3333 301° West 460 529 43,000  Level Vancouver Center
10:14AM 53.4000 -134.4833 313° West 460 529 43,000  Level Vancouver Center
10:15AM 53.4667 -134.6667 301° West 460 529 43,000  Level Vancouver Center
10:16AM 53.5333 -134.8667 299° West 460 529 43,000  Level Vancouver Center
10:17AM 53.6167 -135.0500 308° West 460 529 43,000  Level Vancouver Center
10:18AM 53.6833 -135.2167 304° West 460 529 43,000  Level Vancouver Center
10:19AM 53.7500 -135.4000 302° West 460 529 43,000  Level Vancouver Center
10:20AM 53.8167 -135.5833 302° West 460 529 43,000  Level Vancouver Center
10:21AM 53.8833 -135.7833 300° West 460 529 43,000  Level Vancouver Center
10:22AM 53.9500 -135.9000 314° West 460 529 43,000  Level Anchorage Center
10:23AM 54.0167 -136.1333 296° West 460 529 43,000  Level Vancouver Center
10:24AM 54.0833 -136.3333 300° West 460 529 43,000  Level Vancouver Center
10:25AM 54.1167 -136.5167 287° West 460 529 43,000  Level Vancouver Center
10:26AM 54.1833 -136.7000 302° West 460 529 43,000  Level Vancouver Center
10:27AM 54.2500 -136.8667 304° West 450 518 43,000  Level Vancouver Center
10:28AM 54.3000 -137.0833 292° West 440 506 43,000  Level Vancouver Center
10:29AM 54.3667 -137.2500 305° West 450 518 43,000  Level Vancouver Center
10:30AM 54.4333 -137.4500 300° West 450 518 43,000  Level Vancouver Center
10:31AM 54.4833 -137.6333 295° West 450 518 43,000  Level Vancouver Center
10:32AM 54.5333 -137.8333 293° West 450 518 43,000  Level Vancouver Center
10:33AM 54.6000 -138.0333 300° West 460 529 43,000  Level Vancouver Center
10:34AM 54.6667 -138.2333 300° West 450 518 43,000  Level Vancouver Center
10:35AM 54.7000 -138.4167 288° West 460 529 43,000  Level Vancouver Center
10:36AM 54.7667 -138.6167 300° West 460 529 43,000  Level Vancouver Center
10:37AM 54.8333 -138.8167 300° West 460 529 43,000  Level Vancouver Center
10:38AM 54.8833 -139.0167 294° West 460 529 43,000  Level Vancouver Center
10:39AM 54.9500 -139.2167 300° West 460 529 43,000  Level Vancouver Center
10:40AM 55.0000 -139.4167 294° West 460 529 43,000  Level Vancouver Center
10:41AM 55.0333 -139.5667 291° West 460 529 43,000  Level Vancouver Center
10:42AM 55.1000 -139.7833 298° West 450 518 43,000  Level Vancouver Center
10:43AM 55.1500 -139.9833 294° West 460 529 43,000  Level Vancouver Center
10:44AM 55.2000 -140.1667 296° West 460 529 43,000  Level Vancouver Center
10:45AM 55.2833 -140.3333 311° West 450 518 43,000  Level Anchorage Center
10:46AM 55.3333 -140.5333 294° West 450 518 43,000  Level Anchorage Center
10:47AM 55.3833 -140.7333 294° West 460 529 43,000  Level Anchorage Center
10:48AM 55.4333 -140.9167 296° West 440 506 43,000  Level Anchorage Center
10:49AM 55.4833 -141.1167 294° West 440 506 43,000  Level Anchorage Center
10:50AM 55.5333 -141.3167 294° West 420 483 43,000 -13,860 Level Anchorage Center
10:51AM 48.7500 -122.5833 113° Southeast 310 357 11,000  Descending Vancouver Center
10:54AM 55.7333 -142.1000 308° West 440 506 43,000 8,640 Climbing Anchorage Center
10:55AM 55.7833 -142.2667 298° West 420 483 43,000  Level Anchorage Center
10:56AM 55.8333 -142.4667 294° West 420 483 43,000  Level Anchorage Center
10:57AM 55.8667 -142.6667 287° West 430 495 43,000  Level Anchorage Center
10:58AM 55.9167 -142.8667 294° West 430 495 43,000  Level Anchorage Center
10:59AM 55.9833 -143.0833 299° West 430 495 43,000  Level Anchorage Center
11:00AM 56.0333 -143.2833 294° West 420 483 43,000  Level Anchorage Center
11:01AM 56.0667 -143.4833 287° West 430 495 43,000  Level Anchorage Center
11:02AM 56.1167 -143.6833 294° West 440 506 43,000  Level Anchorage Center
11:03AM 56.1667 -143.8833 294° West 440 506 43,000  Level Anchorage Center
11:04AM 56.2000 -144.1000 286° West 440 506 43,000  Level Anchorage Center
11:05AM 56.2500 -144.3000 294° West 430 495 43,000  Level Anchorage Center
11:06AM 56.3000 -144.5000 294° West 440 506 43,000  Level Anchorage Center
11:07AM 56.3667 -144.7000 301° West 440 506 43,000  Level Anchorage Center
11:08AM 56.4167 -144.9000 294° West 450 518 43,000  Level Anchorage Center
11:09AM 56.4500 -145.0667 290° West 430 495 43,000  Level Anchorage Center
11:10AM 56.5000 -145.2500 296° West 430 495 43,000  Level Anchorage Center
11:11AM 56.5500 -145.4500 294° West 430 495 43,000  Level Anchorage Center
11:12AM 56.6000 -145.6500 294° West 420 483 43,000  Level Anchorage Center
11:13AM 56.6500 -145.8500 295° West 420 483 43,000  Level Anchorage Center
11:14AM 56.7000 -146.0333 296° West 420 483 43,000  Level Anchorage Center
11:15AM 56.7500 -146.2333 295° West 420 483 43,000  Level Anchorage Center
11:16AM 56.7833 -146.4333 287° West 410 472 43,000  Level Anchorage Center
11:17AM 56.8333 -146.6167 297° West 420 483 43,000  Level Anchorage Center
11:18AM 56.8833 -146.8167 295° West 420 483 43,000  Level Anchorage Center
11:19AM 56.9333 -147.0167 295° West 410 472 43,000  Level Anchorage Center
11:20AM 56.9667 -147.2167 287° West 410 472 43,000  Level Anchorage Center
11:21AM 57.0167 -147.4000 297° West 410 472 43,000  Level Anchorage Center
11:22AM 57.0667 -147.6000 295° West 410 472 43,000  Level Anchorage Center
11:23AM 57.1000 -147.8000 287° West 400 460 43,000  Level Anchorage Center
11:24AM 57.1500 -148.0000 295° West 410 472 43,000  Level Anchorage Center
11:25AM 57.2000 -148.1833 297° West 400 460 43,000  Level Anchorage Center
11:26AM 57.2333 -148.3833 287° West 410 472 43,000  Level Anchorage Center
11:27AM 57.2833 -148.5833 295° West 410 472 43,000  Level Anchorage Center
11:28AM 57.3167 -148.7833 287° West 410 472 43,000  Level Anchorage Center
11:29AM 57.3667 -148.9833 295° West 410 472 43,000  Level Anchorage Center
11:30AM 57.4000 -149.1667 289° West 400 460 43,000  Level Anchorage Center
11:31AM 57.4500 -149.3667 295° West 400 460 43,000  Level Anchorage Center
11:32AM 57.4833 -149.5667 287° West 410 472 43,000  Level Anchorage Center
11:33AM 57.5333 -149.7667 295° West 400 460 43,000  Level Anchorage Center
11:34AM 57.5667 -149.9500 289° West 390 449 43,000  Level Anchorage Center
11:35AM 57.6000 -150.1500 287° West 400 460 43,000  Level Anchorage Center
11:36AM 57.6500 -150.3500 295° West 400 460 43,000  Level Anchorage Center
11:37AM 57.6833 -150.5333 289° West 380 437 43,000  Level Anchorage Center
11:38AM 57.7167 -150.7333 287° West 400 460 43,000  Level Anchorage Center
11:39AM 57.7667 -150.9333 295° West 390 449 43,000  Level Anchorage Center
11:40AM 57.8000 -151.1167 289° West 380 437 43,000  Level Anchorage Center
11:41AM 57.8333 -151.3167 287° West 390 449 43,000  Level Anchorage Center
11:42AM 57.8667 -151.5000 289° West 380 437 43,000  Level Anchorage Center
11:43AM 57.9000 -151.7000 287° West 390 449 43,000  Level Anchorage Center
11:44AM 57.9333 -151.8833 289° West 390 449 43,000  Level Anchorage Center
11:45AM 57.9667 -152.0833 288° West 390 449 43,000  Level Anchorage Center
11:46AM 58.0000 -152.2833 288° West 390 449 43,000  Level Anchorage Center
11:47AM 58.0333 -152.4667 289° West 390 449 43,000  Level Anchorage Center
11:48AM 58.0833 -152.6667 295° West 390 449 43,000  Level Anchorage Center
11:49AM 58.1167 -152.8667 288° West 390 449 43,000  Level Anchorage Center
11:50AM 58.1500 -153.0500 289° West 390 449 43,000  Level Anchorage Center
11:51AM 58.1833 -153.2500 288° West 390 449 43,000  Level Anchorage Center
11:52AM 58.2167 -153.4500 288° West 390 449 43,000  Level Anchorage Center
11:53AM 58.2500 -153.6500 288° West 400 460 43,000  Level Anchorage Center
11:54AM 58.2833 -153.8500 288° West 400 460 43,000  Level Anchorage Center
11:55AM 58.3167 -154.0500 288° West 390 449 43,000  Level Anchorage Center
11:56AM 58.3500 -154.2500 288° West 390 449 43,000  Level Anchorage Center
11:57AM 58.3667 -154.4500 279° West 390 449 43,000  Level Anchorage Center
11:58AM 58.4000 -154.6333 289° West 380 437 43,000  Level Anchorage Center
11:59AM 58.4333 -154.8333 288° West 370 426 43,000  Level Anchorage Center
12:00PM 58.4667 -155.0167 289° West 380 437 43,000  Level Anchorage Center
12:01PM 58.5000 -155.2167 288° West 370 426 43,000  Level Anchorage Center
12:02PM 58.5167 -155.4167 279° West 380 437 43,000  Level Anchorage Center
12:03PM 58.5500 -155.6167 288° West 390 449 43,000  Level Anchorage Center
12:04PM 58.5833 -155.8167 288° West 380 437 43,000  Level Anchorage Center
12:05PM 58.6167 -156.0000 289° West 370 426 43,000  Level Anchorage Center
12:06PM 58.6500 -156.2000 288° West 370 426 43,000  Level Anchorage Center
12:07PM 58.6667 -156.4167 279° West 360 414 43,000  Level Anchorage Center
12:08PM 58.7000 -156.6167 288° West 380 437 43,000  Level Anchorage Center
12:09PM 58.7167 -156.8000 280° West 350 403 43,000  Level Anchorage Center
12:10PM 58.8000 -156.9500 317° Northwest 400 460 43,000  Level Anchorage Center
12:11PM 58.9000 -156.9833 350° North 380 437 43,000  Level Anchorage Center
12:12PM 58.9667 -156.8000 55° Northeast 470 541 43,000  Level Anchorage Center
12:13PM 58.9167 -156.5500 111° Southeast 510 587 43,000  Level Anchorage Center
12:14PM 58.8667 -156.3000 111° Southeast 500 575 43,000  Level Anchorage Center
12:15PM 58.7667 -156.2167 157° South 480 552 43,000  Level Anchorage Center
12:16PM 58.6667 -156.3500 215° Southwest 420 483 43,000  Level Anchorage Center
12:17PM 58.7000 -156.5833 285° West 390 449 43,000  Level Anchorage Center
12:18PM 58.7167 -156.7833 279° West 380 437 43,000  Level Anchorage Center
12:19PM 58.8000 -156.9000 324° Northwest 390 449 43,000 -1,860 Level Anchorage Center
12:20PM 58.9000 -156.8000 27° Northeast 440 506 39,300 -3,960 Descending Anchorage Center
12:21PM 58.9167 -156.5167 83° East 550 633 35,100 -3,600 Descending Anchorage Center
12:23PM 58.8333 -155.9833 107° East 490 564 28,500 -2,400 Descending Anchorage Center
12:24PM 58.8000 -155.7333 104° East 480 552 28,000 -960 Descending Anchorage Center
12:25PM 58.7333 -155.6000 134° Southeast 450 518 26,600 -2,820 Descending Anchorage Center
12:27PM 58.5833 -155.7500 208° Southwest 320 368 19,700 -3,240 Descending Anchorage Center
12:28PM 58.6000 -155.9000 282° West 290 334 16,900 -2,820 Descending Anchorage Center
12:29PM 58.6167 -156.0500 282° West 280 322 14,100 -2,760 Descending Anchorage Center
12:30PM 58.6333 -156.2000 282° West 260 299 11,400 -1,860 Descending Anchorage Center
12:31PM 58.6500 -156.3167 285° West 240 276 10,400 -720 Descending Anchorage Center
12:32PM 58.6667 -156.4333 285° West 220 253 10,000 -660 Descending Anchorage Center
12:35PM 58.6667 -156.6333 276° West  Level FlightAware Approximate
12:40PM 58.7167 -156.9167 276° West 210 242 5,100  Level Anchorage Center
12:41PM 58.7667 -156.9333 350° North 230 265 5,000 -60 Descending Anchorage Center
12:42PM 58.6765 -156.6487 276° West  Level Estimated
12:42PM 58.7500 -156.8167 105° East 210 242 5,000  Level Anchorage Center
12:43PM 58.6765 -156.6487 276° West  Level Estimated
12:44PM 58.6765 -156.6487 276° West  Level Estimated
12:45PM 58.6765 -156.6487 276° West  Level Estimated
12:45PM 58.6765 -156.6487 79° East  Level Estimated
12:45PM 58.7167 -156.9000 79° East 200 230 5,000  Level Anchorage Center
12:46PM 58.7667 -156.9167 350° North 230 265 4,700 -540 Descending Anchorage Center
12:47PM 58.7500 -156.8167 108° East 230 265 4,000 -180 Descending Anchorage Center
12:51PM 58.7333 -156.9000 249° West 210 242 4,000 -60 Level Anchorage Center
12:52PM 58.7667 -156.9000 360° North 180 207 3,900 -900 Descending Anchorage Center
12:53PM 58.7500 -156.8167 111° Southeast 190 219 2,200 -1,740 Descending Anchorage Center